Aeroporto :
LOGIN :

Iscrizione | Disclaimer

   EN    FR    IT 

 










Sommario :    VFR   VFR Marginale   IFR   IFR Intensivo   IFR Molto Intensivo
Visibilità : 
Base nubi : 
>= 8 km
>= 3000ft
5 / 8 km
1000 / 3000 ft
1500m / 5 km
500 / 1000 ft
800 / 1500m
200 / 500 ft
< 800m
< 200 ft
Simboli :   Temporali  Nebbia  Neve Forte  Precipitazioni Forti  Vento > 20 kt
SIGMETs :   Varie  Temporali  Ghiacco  Turbolenza  Onda orograficha  Ceneri Vulcaniche






- Altitudine del aeroporto : 423 ft
- Codice IATA : PIS


LFBI - Poitiers

ULTIMO METAR :
  • 292000Z AUTO 18006KT CAVOK 07/06 Q1019 TEMPO BKN005 BECMG 24010KT

METARs OBSOLETI :
  • 291930Z AUTO 17005KT CAVOK 08/06 Q1019 TEMPO BKN005 BECMG 24010KT
  • 291900Z AUTO 17005KT 9999 FEW041 08/07 Q1018 BECMG 24010KT
  • 291830Z AUTO 17005KT 9999 OVC042 09/07 Q1018 BECMG 24010KT
  • 291800Z AUTO 19005KT 9999 OVC044 09/07 Q1018 NOSIG
  • 291730Z AUTO 20005KT 9999 OVC044 09/07 Q1018 NOSIG

TAF TAF LFBI
Valido dal 29 a 18 ore il 30 a 18 ore UTC


291700Z 2918/3018 24010KT 9999 BKN020
PROB30
TEMPO 2921/2923 BKN005
BECMG 2923/3001 18010KT
BECMG 3003/3005 4000 -RA
TEMPO 3005/3018 2000 RADZ OVC005
PROB40
TEMPO 3009/3015 21015G25KT



MetMap, La meteo Aeronautica in un colpo d'occhio ! - Copyright ORBIFLY Dicembre 2007 - Disclaimer

ORBIFLY MET'MAP TEAM :

Programmazione e sviluppo : Alexandra Zaïnal
Concezione : Baudouin d'Aumeries
Aiuto per la programmazione : Marc-Olivier Méhu
Supporto tecnico e logistico : Manuel Goepfert
Aiuto per la traduzione : Arnaldo La Scala

Contatto : metmap@orbifly.com




FONTI E CREDITI :

   NOAA